Terminal Aerodrome Forecast
Issued by NWS

Home | Current Version | Previous Version | Text Only | Print | Product List | Glossary On
Versions: 1 2 3 4 5 6 7 8 9 10 11 12 13 14 15 16 17 18 19 20
290
FTUS41 KGYX 130547
TAFRKD
TAF
KRKD 130547Z 1306/1406 VRB04KT 2SM -SHSN BR SCT015 OVC025
      TEMPO 1306/1310 1 1/2SM -SN BR OVC012
     FM131000 04010KT 3/4SM -SN BR OVC006
     FM131800 34014G24KT 1/2SM SN BLSN OVC004
     FM140000 32015G25KT 2SM -SN BLSN BKN025 OVC040
      AMD LTD TO CLD VIS AND WIND=

USA.gov is the U.S. government's official web portal to all federal, state and local government web resources and services.